Meath Environmental Platform

Observations for Trim Patrick St

Time AQI Temp °C Hum % Pres Pa CO μg/m³ H₂S μg/m³ NO μg/m³ NO₂ μg/m³ O₃ μg/m³ SO₂ μg/m³ PM1 μg/m³ PM2.5 μg/m³ PM10 μg/m³
Thursday 6 August 2026
03:18 2 13.3 74 38,460 0.35 1.34 3.46 12.19 44.17 0 10.57 15.58 17.14
03:17 2 13.3 75 38,460 0.36 1.06 3.42 12.78 45.15 0 10.57 17.66 17.71
03:16 2 13.3 75 38,460 0.36 0.75 3.41 11.97 24.57 0 9.71 17.62 19.38
03:15 2 13.3 73 38,460 0.36 0.9 3.48 13.12 41.99 0 8.86 17.11 18.83
03:14 2 13.3 75 38,460 0.36 0.69 3.47 11.58 32.68 0 10.57 16.93 18.62
03:13 2 13.3 75 38,460 0.37 1.11 3.44 13.02 36.07 0 8.86 15.48 17.02
03:12 2 13.3 75 38,460 0.36 0 3.39 11.21 33.6 0 9.71 16.22 17.84
03:11 2 13.3 75 38,460 0.35 0.56 3.43 11.44 35.24 0 9.71 15.47 17.01
03:10 2 13.3 75 38,460 0.35 0.8 3.43 10.55 34.37 0 10.57 16.93 18.62
03:09 2 13.3 75 38,460 0.34 0.62 3.33 11.69 35.55 0 9.71 13.37 14.71
03:08 2 13.3 74 38,460 0.33 0.93 3.4 11.41 32.92 0 6.29 12.01 13.21
03:07 2 13.3 75 38,460 0.34 1.08 3.48 10.68 35.97 0 8 14.1 15.51
03:06 2 13.3 74 38,460 0.31 1.42 3.48 14.23 48.62 0 9.71 14.85 16.33
03:05 2 13.3 75 38,460 0.33 0.38 3.44 9.7 35.34 0 8 13.37 14.71
03:04 2 13.3 75 38,460 0.33 1.11 3.5 11.6 33.4 0 8 13.35 14.69
03:03 2 13.3 74 38,460 0.33 1.32 3.55 14.66 53.73 0 8 12.71 13.98
03:02 2 13.3 74 38,460 0.33 0 3.46 11.51 32.6 0 7.14 14.14 15.55
03:01 2 13.3 74 38,460 0.32 0.2 3.48 10.53 35.51 0 7.14 10.6 11.66
03:00 2 13.3 75 38,460 0.32 0.28 3.48 11.81 33.45 0 4.57 9.82 10.8
02:59 2 13.3 74 38,460 0.32 0.15 3.46 11.3 34.5 0 4.57 9.85 10.83